sensor_id;sensor_type;location;lat;lon;timestamp;P1;durP1;ratioP1;P2;durP2;ratioP2
20559;SDS011;10438;51.454;6.718;2023-04-24T00:00:16;2.97;;;1.13;;
20559;SDS011;10438;51.454;6.718;2023-04-24T00:02:42;4.43;;;1.57;;
20559;SDS011;10438;51.454;6.718;2023-04-24T00:05:11;3.67;;;1.53;;
20559;SDS011;10438;51.454;6.718;2023-04-24T00:07:38;3.17;;;1.20;;
20559;SDS011;10438;51.454;6.718;2023-04-24T00:10:05;4.63;;;1.00;;
20559;SDS011;10438;51.454;6.718;2023-04-24T00:12:31;2.90;;;1.00;;
20559;SDS011;10438;51.454;6.718;2023-04-24T00:14:56;5.53;;;1.30;;
20559;SDS011;10438;51.454;6.718;2023-04-24T00:17:22;3.40;;;1.20;;
20559;SDS011;10438;51.454;6.718;2023-04-24T00:19:48;4.37;;;1.13;;
20559;SDS011;10438;51.454;6.718;2023-04-24T00:22:16;3.47;;;1.47;;
20559;SDS011;10438;51.454;6.718;2023-04-24T00:24:42;2.73;;;1.00;;
20559;SDS011;10438;51.454;6.718;2023-04-24T00:27:08;3.77;;;1.30;;
20559;SDS011;10438;51.454;6.718;2023-04-24T00:29:33;3.73;;;1.30;;
20559;SDS011;10438;51.454;6.718;2023-04-24T00:31:59;4.50;;;1.20;;
20559;SDS011;10438;51.454;6.718;2023-04-24T00:34:25;6.47;;;1.47;;
20559;SDS011;10438;51.454;6.718;2023-04-24T00:36:50;3.17;;;1.53;;
20559;SDS011;10438;51.454;6.718;2023-04-24T00:39:18;8.43;;;1.80;;
20559;SDS011;10438;51.454;6.718;2023-04-24T00:41:44;4.70;;;2.00;;
20559;SDS011;10438;51.454;6.718;2023-04-24T00:44:10;7.50;;;2.10;;
20559;SDS011;10438;51.454;6.718;2023-04-24T00:46:36;3.40;;;1.80;;
20559;SDS011;10438;51.454;6.718;2023-04-24T00:49:01;4.27;;;2.27;;
20559;SDS011;10438;51.454;6.718;2023-04-24T00:51:27;5.73;;;2.60;;
20559;SDS011;10438;51.454;6.718;2023-04-24T00:53:53;4.27;;;1.93;;
20559;SDS011;10438;51.454;6.718;2023-04-24T00:56:18;6.27;;;2.57;;
20559;SDS011;10438;51.454;6.718;2023-04-24T00:58:44;8.63;;;2.83;;
20559;SDS011;10438;51.454;6.718;2023-04-24T01:01:10;7.07;;;2.80;;
20559;SDS011;10438;51.454;6.718;2023-04-24T01:03:36;7.33;;;2.77;;
20559;SDS011;10438;51.454;6.718;2023-04-24T01:06:02;5.83;;;3.37;;
20559;SDS011;10438;51.454;6.718;2023-04-24T01:08:28;6.83;;;3.00;;
20559;SDS011;10438;51.454;6.718;2023-04-24T01:10:54;6.90;;;2.90;;
20559;SDS011;10438;51.454;6.718;2023-04-24T01:13:21;8.10;;;3.40;;
20559;SDS011;10438;51.454;6.718;2023-04-24T01:15:47;6.30;;;3.17;;
20559;SDS011;10438;51.454;6.718;2023-04-24T01:18:13;6.47;;;3.30;;
20559;SDS011;10438;51.454;6.718;2023-04-24T01:20:40;6.13;;;3.40;;
20559;SDS011;10438;51.454;6.718;2023-04-24T01:23:08;8.10;;;4.10;;
20559;SDS011;10438;51.454;6.718;2023-04-24T01:25:35;9.13;;;4.03;;
20559;SDS011;10438;51.454;6.718;2023-04-24T01:28:01;9.10;;;4.30;;
20559;SDS011;10438;51.454;6.718;2023-04-24T01:30:27;12.83;;;4.93;;
20559;SDS011;10438;51.454;6.718;2023-04-24T01:32:53;8.77;;;4.40;;
20559;SDS011;10438;51.454;6.718;2023-04-24T01:35:19;9.43;;;5.07;;
20559;SDS011;10438;51.454;6.718;2023-04-24T01:37:45;9.37;;;5.20;;
20559;SDS011;10438;51.454;6.718;2023-04-24T01:40:10;8.90;;;4.33;;
20559;SDS011;10438;51.454;6.718;2023-04-24T01:42:37;8.90;;;4.33;;
20559;SDS011;10438;51.454;6.718;2023-04-24T01:45:03;7.97;;;5.00;;
20559;SDS011;10438;51.454;6.718;2023-04-24T01:47:30;11.20;;;5.40;;
20559;SDS011;10438;51.454;6.718;2023-04-24T01:49:57;9.43;;;5.17;;
20559;SDS011;10438;51.454;6.718;2023-04-24T01:52:23;9.70;;;5.50;;
20559;SDS011;10438;51.454;6.718;2023-04-24T01:54:48;11.00;;;5.03;;
20559;SDS011;10438;51.454;6.718;2023-04-24T01:57:14;12.93;;;6.60;;
20559;SDS011;10438;51.454;6.718;2023-04-24T01:59:41;9.07;;;4.97;;
20559;SDS011;10438;51.454;6.718;2023-04-24T02:02:06;11.33;;;5.60;;
20559;SDS011;10438;51.454;6.718;2023-04-24T02:04:32;10.07;;;4.60;;
20559;SDS011;10438;51.454;6.718;2023-04-24T02:06:58;12.23;;;5.50;;
20559;SDS011;10438;51.454;6.718;2023-04-24T02:09:23;13.70;;;6.40;;
20559;SDS011;10438;51.454;6.718;2023-04-24T02:11:49;10.77;;;6.07;;
20559;SDS011;10438;51.454;6.718;2023-04-24T02:14:15;12.10;;;6.03;;
20559;SDS011;10438;51.454;6.718;2023-04-24T02:16:41;11.40;;;5.90;;
20559;SDS011;10438;51.454;6.718;2023-04-24T02:19:07;16.80;;;6.50;;
20559;SDS011;10438;51.454;6.718;2023-04-24T02:21:32;13.13;;;6.20;;
20559;SDS011;10438;51.454;6.718;2023-04-24T02:23:58;17.03;;;7.77;;
20559;SDS011;10438;51.454;6.718;2023-04-24T02:26:24;15.07;;;8.10;;
20559;SDS011;10438;51.454;6.718;2023-04-24T02:28:49;13.73;;;7.50;;
20559;SDS011;10438;51.454;6.718;2023-04-24T02:31:15;17.83;;;8.83;;
20559;SDS011;10438;51.454;6.718;2023-04-24T02:33:41;17.83;;;9.13;;
20559;SDS011;10438;51.454;6.718;2023-04-24T02:36:06;15.63;;;8.93;;
20559;SDS011;10438;51.454;6.718;2023-04-24T02:38:32;16.27;;;8.27;;
20559;SDS011;10438;51.454;6.718;2023-04-24T02:40:57;18.87;;;8.03;;
20559;SDS011;10438;51.454;6.718;2023-04-24T02:43:23;19.10;;;8.97;;
20559;SDS011;10438;51.454;6.718;2023-04-24T02:45:48;16.63;;;8.20;;
20559;SDS011;10438;51.454;6.718;2023-04-24T02:48:14;18.00;;;8.60;;
20559;SDS011;10438;51.454;6.718;2023-04-24T02:50:40;18.47;;;9.20;;
20559;SDS011;10438;51.454;6.718;2023-04-24T02:53:05;17.57;;;9.70;;
20559;SDS011;10438;51.454;6.718;2023-04-24T02:55:31;15.90;;;8.70;;
20559;SDS011;10438;51.454;6.718;2023-04-24T02:57:57;16.90;;;7.40;;
20559;SDS011;10438;51.454;6.718;2023-04-24T03:00:22;20.23;;;10.43;;
20559;SDS011;10438;51.454;6.718;2023-04-24T03:02:48;19.63;;;10.60;;
20559;SDS011;10438;51.454;6.718;2023-04-24T03:05:14;18.80;;;9.77;;
20559;SDS011;10438;51.454;6.718;2023-04-24T03:07:40;16.20;;;9.90;;
20559;SDS011;10438;51.454;6.718;2023-04-24T03:10:06;20.03;;;10.50;;
20559;SDS011;10438;51.454;6.718;2023-04-24T03:12:32;16.80;;;10.40;;
20559;SDS011;10438;51.454;6.718;2023-04-24T03:14:57;17.17;;;10.23;;
20559;SDS011;10438;51.454;6.718;2023-04-24T03:17:23;19.27;;;10.07;;
20559;SDS011;10438;51.454;6.718;2023-04-24T03:19:48;25.03;;;12.27;;
20559;SDS011;10438;51.454;6.718;2023-04-24T03:22:14;23.03;;;12.27;;
20559;SDS011;10438;51.454;6.718;2023-04-24T03:24:39;20.83;;;12.10;;
20559;SDS011;10438;51.454;6.718;2023-04-24T03:27:05;20.53;;;11.60;;
20559;SDS011;10438;51.454;6.718;2023-04-24T03:29:31;24.50;;;11.40;;
20559;SDS011;10438;51.454;6.718;2023-04-24T03:31:56;24.60;;;11.80;;
20559;SDS011;10438;51.454;6.718;2023-04-24T03:34:22;24.37;;;10.77;;
20559;SDS011;10438;51.454;6.718;2023-04-24T03:36:47;23.30;;;11.37;;
20559;SDS011;10438;51.454;6.718;2023-04-24T03:39:13;25.07;;;11.77;;
20559;SDS011;10438;51.454;6.718;2023-04-24T03:41:39;19.57;;;10.20;;
20559;SDS011;10438;51.454;6.718;2023-04-24T03:44:05;33.07;;;12.17;;
20559;SDS011;10438;51.454;6.718;2023-04-24T03:46:30;22.80;;;11.30;;
20559;SDS011;10438;51.454;6.718;2023-04-24T03:48:56;19.87;;;10.00;;
20559;SDS011;10438;51.454;6.718;2023-04-24T03:51:22;22.07;;;10.77;;
20559;SDS011;10438;51.454;6.718;2023-04-24T03:53:47;20.77;;;10.43;;
20559;SDS011;10438;51.454;6.718;2023-04-24T03:56:13;23.67;;;10.37;;
20559;SDS011;10438;51.454;6.718;2023-04-24T03:58:39;21.53;;;10.20;;
20559;SDS011;10438;51.454;6.718;2023-04-24T04:01:05;19.07;;;10.27;;
20559;SDS011;10438;51.454;6.718;2023-04-24T04:03:31;23.60;;;13.13;;
20559;SDS011;10438;51.454;6.718;2023-04-24T04:05:56;20.17;;;10.70;;
20559;SDS011;10438;51.454;6.718;2023-04-24T04:08:22;22.03;;;10.43;;
20559;SDS011;10438;51.454;6.718;2023-04-24T04:10:47;23.57;;;10.53;;
20559;SDS011;10438;51.454;6.718;2023-04-24T04:13:13;22.23;;;11.63;;
20559;SDS011;10438;51.454;6.718;2023-04-24T04:15:39;20.43;;;11.47;;
20559;SDS011;10438;51.454;6.718;2023-04-24T04:18:05;27.27;;;11.37;;
20559;SDS011;10438;51.454;6.718;2023-04-24T04:20:30;25.97;;;11.40;;
20559;SDS011;10438;51.454;6.718;2023-04-24T04:22:56;18.77;;;10.17;;
20559;SDS011;10438;51.454;6.718;2023-04-24T04:25:21;20.53;;;11.50;;
20559;SDS011;10438;51.454;6.718;2023-04-24T04:27:48;22.30;;;12.30;;
20559;SDS011;10438;51.454;6.718;2023-04-24T04:30:14;18.77;;;10.10;;
20559;SDS011;10438;51.454;6.718;2023-04-24T04:32:39;19.87;;;10.47;;
20559;SDS011;10438;51.454;6.718;2023-04-24T04:35:05;21.83;;;11.70;;
20559;SDS011;10438;51.454;6.718;2023-04-24T04:37:31;22.87;;;10.47;;
20559;SDS011;10438;51.454;6.718;2023-04-24T04:39:58;17.00;;;9.47;;
20559;SDS011;10438;51.454;6.718;2023-04-24T04:42:24;20.43;;;9.17;;
20559;SDS011;10438;51.454;6.718;2023-04-24T04:44:50;15.43;;;8.47;;
20559;SDS011;10438;51.454;6.718;2023-04-24T04:47:16;14.70;;;9.20;;
20559;SDS011;10438;51.454;6.718;2023-04-24T04:49:42;17.50;;;9.73;;
20559;SDS011;10438;51.454;6.718;2023-04-24T04:52:08;17.37;;;9.23;;
20559;SDS011;10438;51.454;6.718;2023-04-24T04:54:34;17.43;;;8.93;;
20559;SDS011;10438;51.454;6.718;2023-04-24T04:56:59;16.13;;;8.50;;
20559;SDS011;10438;51.454;6.718;2023-04-24T04:59:25;10.83;;;7.03;;
20559;SDS011;10438;51.454;6.718;2023-04-24T05:01:51;14.53;;;7.80;;
20559;SDS011;10438;51.454;6.718;2023-04-24T05:04:17;14.13;;;7.37;;
20559;SDS011;10438;51.454;6.718;2023-04-24T05:06:43;11.57;;;7.03;;
20559;SDS011;10438;51.454;6.718;2023-04-24T05:09:08;19.30;;;8.13;;
20559;SDS011;10438;51.454;6.718;2023-04-24T05:11:34;14.10;;;8.03;;
20559;SDS011;10438;51.454;6.718;2023-04-24T05:14:00;17.40;;;9.40;;
20559;SDS011;10438;51.454;6.718;2023-04-24T05:16:25;14.77;;;8.33;;
20559;SDS011;10438;51.454;6.718;2023-04-24T05:18:51;13.87;;;7.43;;
20559;SDS011;10438;51.454;6.718;2023-04-24T05:21:16;13.97;;;7.53;;
20559;SDS011;10438;51.454;6.718;2023-04-24T05:23:42;15.77;;;8.93;;
20559;SDS011;10438;51.454;6.718;2023-04-24T05:26:08;21.20;;;9.70;;
20559;SDS011;10438;51.454;6.718;2023-04-24T05:28:33;29.30;;;10.53;;
20559;SDS011;10438;51.454;6.718;2023-04-24T05:31:01;15.23;;;9.63;;
20559;SDS011;10438;51.454;6.718;2023-04-24T05:33:27;19.27;;;10.13;;
20559;SDS011;10438;51.454;6.718;2023-04-24T05:35:53;23.13;;;11.63;;
20559;SDS011;10438;51.454;6.718;2023-04-24T05:38:19;21.10;;;11.17;;
20559;SDS011;10438;51.454;6.718;2023-04-24T05:40:47;16.60;;;10.23;;
20559;SDS011;10438;51.454;6.718;2023-04-24T05:43:13;21.17;;;11.13;;
20559;SDS011;10438;51.454;6.718;2023-04-24T05:45:39;18.90;;;10.30;;
20559;SDS011;10438;51.454;6.718;2023-04-24T05:48:04;21.83;;;11.07;;
20559;SDS011;10438;51.454;6.718;2023-04-24T05:50:30;21.47;;;11.47;;
20559;SDS011;10438;51.454;6.718;2023-04-24T05:52:56;20.83;;;12.00;;
20559;SDS011;10438;51.454;6.718;2023-04-24T05:55:26;15.70;;;9.83;;
20559;SDS011;10438;51.454;6.718;2023-04-24T05:57:52;20.90;;;10.67;;
20559;SDS011;10438;51.454;6.718;2023-04-24T06:00:18;21.83;;;9.80;;
20559;SDS011;10438;51.454;6.718;2023-04-24T06:02:45;18.10;;;9.60;;
20559;SDS011;10438;51.454;6.718;2023-04-24T06:05:12;21.77;;;10.47;;
20559;SDS011;10438;51.454;6.718;2023-04-24T06:07:37;16.10;;;10.20;;
20559;SDS011;10438;51.454;6.718;2023-04-24T06:10:03;20.80;;;12.07;;
20559;SDS011;10438;51.454;6.718;2023-04-24T06:12:29;16.57;;;9.27;;
20559;SDS011;10438;51.454;6.718;2023-04-24T06:14:55;22.13;;;11.57;;
20559;SDS011;10438;51.454;6.718;2023-04-24T06:17:20;16.53;;;10.50;;
20559;SDS011;10438;51.454;6.718;2023-04-24T06:19:46;17.37;;;8.90;;
20559;SDS011;10438;51.454;6.718;2023-04-24T06:22:12;17.07;;;10.33;;
20559;SDS011;10438;51.454;6.718;2023-04-24T06:24:39;16.63;;;10.03;;
20559;SDS011;10438;51.454;6.718;2023-04-24T06:27:05;17.37;;;10.00;;
20559;SDS011;10438;51.454;6.718;2023-04-24T06:29:30;28.07;;;10.60;;
20559;SDS011;10438;51.454;6.718;2023-04-24T06:31:56;16.57;;;10.40;;
20559;SDS011;10438;51.454;6.718;2023-04-24T06:34:22;27.23;;;9.93;;
20559;SDS011;10438;51.454;6.718;2023-04-24T06:36:47;27.33;;;9.30;;
20559;SDS011;10438;51.454;6.718;2023-04-24T06:39:13;25.00;;;9.13;;
20559;SDS011;10438;51.454;6.718;2023-04-24T06:41:38;17.07;;;7.93;;
20559;SDS011;10438;51.454;6.718;2023-04-24T06:44:04;24.93;;;8.70;;
20559;SDS011;10438;51.454;6.718;2023-04-24T06:46:30;16.07;;;8.93;;
20559;SDS011;10438;51.454;6.718;2023-04-24T06:48:56;19.83;;;8.80;;
20559;SDS011;10438;51.454;6.718;2023-04-24T06:51:25;10.47;;;6.23;;
20559;SDS011;10438;51.454;6.718;2023-04-24T06:53:54;12.13;;;6.60;;
20559;SDS011;10438;51.454;6.718;2023-04-24T06:56:22;12.97;;;5.63;;
20559;SDS011;10438;51.454;6.718;2023-04-24T06:58:48;14.77;;;6.00;;
20559;SDS011;10438;51.454;6.718;2023-04-24T07:01:14;13.37;;;5.70;;
20559;SDS011;10438;51.454;6.718;2023-04-24T07:03:39;15.10;;;5.40;;
20559;SDS011;10438;51.454;6.718;2023-04-24T07:06:05;13.83;;;4.93;;
20559;SDS011;10438;51.454;6.718;2023-04-24T07:08:31;8.80;;;4.67;;
20559;SDS011;10438;51.454;6.718;2023-04-24T07:10:57;9.60;;;4.10;;
20559;SDS011;10438;51.454;6.718;2023-04-24T07:13:23;7.03;;;4.00;;
20559;SDS011;10438;51.454;6.718;2023-04-24T07:15:49;6.57;;;3.20;;
20559;SDS011;10438;51.454;6.718;2023-04-24T07:18:17;4.57;;;2.50;;
20559;SDS011;10438;51.454;6.718;2023-04-24T07:20:43;4.90;;;2.40;;
20559;SDS011;10438;51.454;6.718;2023-04-24T07:23:09;4.43;;;2.03;;
20559;SDS011;10438;51.454;6.718;2023-04-24T07:25:34;4.80;;;1.90;;
20559;SDS011;10438;51.454;6.718;2023-04-24T07:28:00;3.47;;;1.50;;
20559;SDS011;10438;51.454;6.718;2023-04-24T07:30:26;2.87;;;1.40;;
20559;SDS011;10438;51.454;6.718;2023-04-24T07:32:53;7.93;;;1.60;;
20559;SDS011;10438;51.454;6.718;2023-04-24T07:35:19;4.90;;;1.50;;
20559;SDS011;10438;51.454;6.718;2023-04-24T07:37:45;4.93;;;1.80;;
20559;SDS011;10438;51.454;6.718;2023-04-24T07:40:11;4.83;;;1.40;;
20559;SDS011;10438;51.454;6.718;2023-04-24T07:42:37;4.97;;;2.10;;
20559;SDS011;10438;51.454;6.718;2023-04-24T07:45:03;9.67;;;2.93;;
20559;SDS011;10438;51.454;6.718;2023-04-24T07:47:29;9.20;;;2.00;;
20559;SDS011;10438;51.454;6.718;2023-04-24T07:49:55;2.57;;;1.17;;
20559;SDS011;10438;51.454;6.718;2023-04-24T07:52:21;4.10;;;1.20;;
20559;SDS011;10438;51.454;6.718;2023-04-24T07:54:47;3.30;;;1.10;;
20559;SDS011;10438;51.454;6.718;2023-04-24T07:57:12;3.37;;;1.00;;
20559;SDS011;10438;51.454;6.718;2023-04-24T07:59:38;2.53;;;1.00;;
20559;SDS011;10438;51.454;6.718;2023-04-24T08:02:04;2.83;;;1.10;;
20559;SDS011;10438;51.454;6.718;2023-04-24T08:04:31;3.00;;;1.27;;
20559;SDS011;10438;51.454;6.718;2023-04-24T08:06:56;5.80;;;1.30;;
20559;SDS011;10438;51.454;6.718;2023-04-24T08:09:22;2.80;;;1.20;;
20559;SDS011;10438;51.454;6.718;2023-04-24T08:11:47;4.27;;;1.27;;
20559;SDS011;10438;51.454;6.718;2023-04-24T08:14:13;2.17;;;1.10;;
20559;SDS011;10438;51.454;6.718;2023-04-24T08:16:39;2.60;;;1.23;;
20559;SDS011;10438;51.454;6.718;2023-04-24T08:19:05;3.77;;;1.47;;
20559;SDS011;10438;51.454;6.718;2023-04-24T08:21:31;3.60;;;1.60;;
20559;SDS011;10438;51.454;6.718;2023-04-24T08:23:57;3.40;;;1.50;;
20559;SDS011;10438;51.454;6.718;2023-04-24T08:26:22;5.03;;;1.50;;
20559;SDS011;10438;51.454;6.718;2023-04-24T08:28:48;3.93;;;1.63;;
20559;SDS011;10438;51.454;6.718;2023-04-24T08:31:14;3.13;;;1.50;;
20559;SDS011;10438;51.454;6.718;2023-04-24T08:33:40;5.33;;;1.37;;
20559;SDS011;10438;51.454;6.718;2023-04-24T08:36:06;4.93;;;1.70;;
20559;SDS011;10438;51.454;6.718;2023-04-24T08:38:32;4.37;;;1.50;;
20559;SDS011;10438;51.454;6.718;2023-04-24T08:40:59;3.60;;;1.50;;
20559;SDS011;10438;51.454;6.718;2023-04-24T08:43:26;2.43;;;1.20;;
20559;SDS011;10438;51.454;6.718;2023-04-24T08:45:52;3.30;;;1.30;;
20559;SDS011;10438;51.454;6.718;2023-04-24T08:48:20;3.37;;;1.20;;
20559;SDS011;10438;51.454;6.718;2023-04-24T08:50:48;3.33;;;1.20;;
20559;SDS011;10438;51.454;6.718;2023-04-24T08:53:15;4.30;;;1.37;;
20559;SDS011;10438;51.454;6.718;2023-04-24T08:55:41;2.50;;;1.03;;
20559;SDS011;10438;51.454;6.718;2023-04-24T08:58:09;3.90;;;1.50;;
20559;SDS011;10438;51.454;6.718;2023-04-24T09:00:35;3.93;;;1.93;;
20559;SDS011;10438;51.454;6.718;2023-04-24T09:03:03;5.93;;;2.73;;
20559;SDS011;10438;51.454;6.718;2023-04-24T09:05:30;10.67;;;6.33;;
20559;SDS011;10438;51.454;6.718;2023-04-24T09:07:57;13.07;;;7.60;;
20559;SDS011;10438;51.454;6.718;2023-04-24T09:10:24;14.57;;;8.37;;
20559;SDS011;10438;51.454;6.718;2023-04-24T09:12:51;17.33;;;8.40;;
20559;SDS011;10438;51.454;6.718;2023-04-24T09:15:18;16.30;;;8.50;;
20559;SDS011;10438;51.454;6.718;2023-04-24T09:17:45;16.70;;;8.53;;
20559;SDS011;10438;51.454;6.718;2023-04-24T09:20:11;15.43;;;8.27;;
20559;SDS011;10438;51.454;6.718;2023-04-24T09:22:37;17.77;;;7.83;;
20559;SDS011;10438;51.454;6.718;2023-04-24T09:25:06;11.73;;;6.97;;
20559;SDS011;10438;51.454;6.718;2023-04-24T09:27:33;13.57;;;6.03;;
20559;SDS011;10438;51.454;6.718;2023-04-24T09:29:59;14.73;;;6.37;;
20559;SDS011;10438;51.454;6.718;2023-04-24T09:32:26;12.07;;;6.37;;
20559;SDS011;10438;51.454;6.718;2023-04-24T09:35:09;11.13;;;6.93;;
20559;SDS011;10438;51.454;6.718;2023-04-24T09:37:40;13.30;;;6.87;;
20559;SDS011;10438;51.454;6.718;2023-04-24T09:40:16;16.60;;;8.17;;
20559;SDS011;10438;51.454;6.718;2023-04-24T09:42:43;12.43;;;7.57;;
20559;SDS011;10438;51.454;6.718;2023-04-24T09:45:21;13.87;;;7.97;;
20559;SDS011;10438;51.454;6.718;2023-04-24T09:47:51;16.17;;;7.50;;
20559;SDS011;10438;51.454;6.718;2023-04-24T09:50:18;14.70;;;8.27;;
20559;SDS011;10438;51.454;6.718;2023-04-24T09:52:45;17.00;;;8.40;;
20559;SDS011;10438;51.454;6.718;2023-04-24T09:55:19;16.63;;;8.00;;
20559;SDS011;10438;51.454;6.718;2023-04-24T09:57:52;16.83;;;9.00;;
20559;SDS011;10438;51.454;6.718;2023-04-24T10:00:30;18.70;;;9.47;;
20559;SDS011;10438;51.454;6.718;2023-04-24T10:03:01;17.73;;;9.70;;
20559;SDS011;10438;51.454;6.718;2023-04-24T10:05:31;16.80;;;8.43;;
20559;SDS011;10438;51.454;6.718;2023-04-24T10:08:08;18.10;;;8.50;;
20559;SDS011;10438;51.454;6.718;2023-04-24T10:10:40;15.03;;;6.77;;
20559;SDS011;10438;51.454;6.718;2023-04-24T10:13:10;21.90;;;7.17;;
20559;SDS011;10438;51.454;6.718;2023-04-24T10:15:37;18.43;;;6.70;;
20559;SDS011;10438;51.454;6.718;2023-04-24T10:18:04;15.63;;;5.83;;
20559;SDS011;10438;51.454;6.718;2023-04-24T10:20:31;15.70;;;5.63;;
20559;SDS011;10438;51.454;6.718;2023-04-24T10:22:58;19.10;;;6.50;;
20559;SDS011;10438;51.454;6.718;2023-04-24T10:25:34;19.47;;;7.13;;
20559;SDS011;10438;51.454;6.718;2023-04-24T10:28:01;20.53;;;6.90;;
20559;SDS011;10438;51.454;6.718;2023-04-24T10:30:32;21.27;;;7.30;;
20559;SDS011;10438;51.454;6.718;2023-04-24T10:33:00;18.00;;;7.00;;
20559;SDS011;10438;51.454;6.718;2023-04-24T10:35:30;17.90;;;7.43;;
20559;SDS011;10438;51.454;6.718;2023-04-24T10:37:58;24.63;;;6.80;;
20559;SDS011;10438;51.454;6.718;2023-04-24T10:40:32;19.97;;;6.70;;
20559;SDS011;10438;51.454;6.718;2023-04-24T10:42:58;18.67;;;6.30;;
20559;SDS011;10438;51.454;6.718;2023-04-24T10:45:26;19.23;;;6.53;;
20559;SDS011;10438;51.454;6.718;2023-04-24T10:48:02;16.33;;;6.23;;
20559;SDS011;10438;51.454;6.718;2023-04-24T10:50:51;17.73;;;5.70;;
20559;SDS011;10438;51.454;6.718;2023-04-24T10:53:18;17.53;;;5.63;;
20559;SDS011;10438;51.454;6.718;2023-04-24T10:55:46;18.07;;;6.13;;
20559;SDS011;10438;51.454;6.718;2023-04-24T10:58:16;19.90;;;6.30;;
20559;SDS011;10438;51.454;6.718;2023-04-24T11:00:56;18.20;;;6.60;;
20559;SDS011;10438;51.454;6.718;2023-04-24T11:03:24;16.67;;;6.73;;
20559;SDS011;10438;51.454;6.718;2023-04-24T11:05:52;22.20;;;6.40;;
20559;SDS011;10438;51.454;6.718;2023-04-24T11:10:58;15.70;;;6.10;;
20559;SDS011;10438;51.454;6.718;2023-04-24T11:13:25;17.17;;;6.47;;
20559;SDS011;10438;51.454;6.718;2023-04-24T11:18:37;29.90;;;7.23;;
20559;SDS011;10438;51.454;6.718;2023-04-24T11:21:09;17.40;;;5.00;;
20559;SDS011;10438;51.454;6.718;2023-04-24T11:23:38;19.07;;;4.53;;
20559;SDS011;10438;51.454;6.718;2023-04-24T11:26:21;10.03;;;4.10;;
20559;SDS011;10438;51.454;6.718;2023-04-24T11:28:51;12.93;;;3.80;;
20559;SDS011;10438;51.454;6.718;2023-04-24T11:34:13;12.47;;;4.27;;
20559;SDS011;10438;51.454;6.718;2023-04-24T11:36:39;14.40;;;4.00;;
20559;SDS011;10438;51.454;6.718;2023-04-24T11:39:05;10.37;;;3.50;;
20559;SDS011;10438;51.454;6.718;2023-04-24T11:41:31;9.50;;;3.33;;
20559;SDS011;10438;51.454;6.718;2023-04-24T11:43:58;10.23;;;3.27;;
20559;SDS011;10438;51.454;6.718;2023-04-24T11:46:27;14.23;;;3.80;;
20559;SDS011;10438;51.454;6.718;2023-04-24T11:48:53;12.53;;;3.60;;
20559;SDS011;10438;51.454;6.718;2023-04-24T11:51:19;15.40;;;4.00;;
20559;SDS011;10438;51.454;6.718;2023-04-24T11:53:44;10.53;;;3.77;;
20559;SDS011;10438;51.454;6.718;2023-04-24T11:56:10;11.53;;;4.17;;
20559;SDS011;10438;51.454;6.718;2023-04-24T11:58:37;11.60;;;3.07;;
20559;SDS011;10438;51.454;6.718;2023-04-24T12:01:04;9.57;;;3.57;;
20559;SDS011;10438;51.454;6.718;2023-04-24T12:03:30;10.87;;;3.80;;
20559;SDS011;10438;51.454;6.718;2023-04-24T12:06:09;15.40;;;4.17;;
20559;SDS011;10438;51.454;6.718;2023-04-24T12:08:36;9.90;;;3.93;;
20559;SDS011;10438;51.454;6.718;2023-04-24T12:11:03;11.80;;;3.47;;
20559;SDS011;10438;51.454;6.718;2023-04-24T12:13:30;7.90;;;3.27;;
20559;SDS011;10438;51.454;6.718;2023-04-24T12:15:59;11.70;;;3.57;;
20559;SDS011;10438;51.454;6.718;2023-04-24T12:18:26;7.93;;;2.90;;
20559;SDS011;10438;51.454;6.718;2023-04-24T12:20:52;5.77;;;2.20;;
20559;SDS011;10438;51.454;6.718;2023-04-24T12:23:33;14.40;;;2.60;;
20559;SDS011;10438;51.454;6.718;2023-04-24T12:26:00;9.70;;;2.40;;
20559;SDS011;10438;51.454;6.718;2023-04-24T12:28:34;7.13;;;2.27;;
20559;SDS011;10438;51.454;6.718;2023-04-24T12:31:04;6.53;;;2.03;;
20559;SDS011;10438;51.454;6.718;2023-04-24T12:33:34;5.63;;;2.00;;
20559;SDS011;10438;51.454;6.718;2023-04-24T12:36:00;6.67;;;1.80;;
20559;SDS011;10438;51.454;6.718;2023-04-24T12:38:27;11.53;;;1.67;;
20559;SDS011;10438;51.454;6.718;2023-04-24T12:41:01;6.20;;;1.50;;
20559;SDS011;10438;51.454;6.718;2023-04-24T12:43:29;6.27;;;1.73;;
20559;SDS011;10438;51.454;6.718;2023-04-24T12:45:54;8.73;;;3.00;;
20559;SDS011;10438;51.454;6.718;2023-04-24T12:48:20;4.90;;;1.90;;
20559;SDS011;10438;51.454;6.718;2023-04-24T12:50:47;8.67;;;1.90;;
20559;SDS011;10438;51.454;6.718;2023-04-24T12:53:12;5.67;;;1.50;;
20559;SDS011;10438;51.454;6.718;2023-04-24T12:55:38;7.57;;;1.43;;
20559;SDS011;10438;51.454;6.718;2023-04-24T12:58:05;8.53;;;1.10;;
20559;SDS011;10438;51.454;6.718;2023-04-24T13:00:30;5.60;;;1.20;;
20559;SDS011;10438;51.454;6.718;2023-04-24T13:02:56;7.60;;;1.50;;
20559;SDS011;10438;51.454;6.718;2023-04-24T13:05:21;6.80;;;1.17;;
20559;SDS011;10438;51.454;6.718;2023-04-24T13:07:47;3.77;;;1.10;;
20559;SDS011;10438;51.454;6.718;2023-04-24T13:10:12;5.87;;;1.47;;
20559;SDS011;10438;51.454;6.718;2023-04-24T13:12:38;7.53;;;1.13;;
20559;SDS011;10438;51.454;6.718;2023-04-24T13:15:05;5.50;;;1.30;;
20559;SDS011;10438;51.454;6.718;2023-04-24T13:17:31;4.67;;;1.30;;
20559;SDS011;10438;51.454;6.718;2023-04-24T13:19:58;7.90;;;1.10;;
20559;SDS011;10438;51.454;6.718;2023-04-24T13:22:23;8.63;;;1.60;;
20559;SDS011;10438;51.454;6.718;2023-04-24T13:24:49;7.20;;;1.57;;
20559;SDS011;10438;51.454;6.718;2023-04-24T13:27:15;8.20;;;1.30;;
20559;SDS011;10438;51.454;6.718;2023-04-24T13:29:41;8.63;;;1.30;;
20559;SDS011;10438;51.454;6.718;2023-04-24T13:32:07;4.70;;;1.40;;
20559;SDS011;10438;51.454;6.718;2023-04-24T13:34:33;6.13;;;1.50;;
20559;SDS011;10438;51.454;6.718;2023-04-24T13:37:01;4.00;;;1.10;;
20559;SDS011;10438;51.454;6.718;2023-04-24T13:39:28;6.10;;;1.73;;
20559;SDS011;10438;51.454;6.718;2023-04-24T13:41:54;6.87;;;1.70;;
20559;SDS011;10438;51.454;6.718;2023-04-24T13:44:20;8.00;;;1.30;;
20559;SDS011;10438;51.454;6.718;2023-04-24T13:46:48;6.00;;;1.50;;
20559;SDS011;10438;51.454;6.718;2023-04-24T13:49:16;5.17;;;1.37;;
20559;SDS011;10438;51.454;6.718;2023-04-24T13:51:42;6.23;;;1.80;;
20559;SDS011;10438;51.454;6.718;2023-04-24T13:54:08;4.73;;;1.50;;
20559;SDS011;10438;51.454;6.718;2023-04-24T13:56:34;9.60;;;1.20;;
20559;SDS011;10438;51.454;6.718;2023-04-24T13:58:59;5.87;;;1.20;;
20559;SDS011;10438;51.454;6.718;2023-04-24T14:01:25;5.97;;;1.40;;
20559;SDS011;10438;51.454;6.718;2023-04-24T14:03:54;7.63;;;1.53;;
20559;SDS011;10438;51.454;6.718;2023-04-24T14:06:20;8.90;;;1.20;;
20559;SDS011;10438;51.454;6.718;2023-04-24T14:08:46;5.73;;;1.57;;
20559;SDS011;10438;51.454;6.718;2023-04-24T14:11:12;4.93;;;1.07;;
20559;SDS011;10438;51.454;6.718;2023-04-24T14:13:38;3.53;;;1.10;;
20559;SDS011;10438;51.454;6.718;2023-04-24T14:16:06;4.50;;;1.20;;
20559;SDS011;10438;51.454;6.718;2023-04-24T14:18:31;3.67;;;1.10;;
20559;SDS011;10438;51.454;6.718;2023-04-24T14:20:57;4.93;;;1.43;;
20559;SDS011;10438;51.454;6.718;2023-04-24T14:23:22;4.87;;;1.23;;
20559;SDS011;10438;51.454;6.718;2023-04-24T14:25:48;4.20;;;1.13;;
20559;SDS011;10438;51.454;6.718;2023-04-24T14:28:17;9.37;;;1.30;;
20559;SDS011;10438;51.454;6.718;2023-04-24T14:30:44;3.40;;;1.10;;
20559;SDS011;10438;51.454;6.718;2023-04-24T14:33:09;6.90;;;1.10;;
20559;SDS011;10438;51.454;6.718;2023-04-24T14:35:35;5.17;;;1.30;;
20559;SDS011;10438;51.454;6.718;2023-04-24T14:38:01;8.30;;;1.80;;
20559;SDS011;10438;51.454;6.718;2023-04-24T14:40:27;5.97;;;1.70;;
20559;SDS011;10438;51.454;6.718;2023-04-24T14:42:53;7.53;;;2.73;;